Time;durP1;ratioP1;P1;durP2;ratioP2;P2;SDS_P1;SDS_P2;PMS_P1;PMS_P2;Temp;Humidity;BMP_temperature;BMP_pressure;BME280_temperature;BME280_humidity;BME280_pressure;Samples;Min_cycle;Max_cycle;Signal;HPM_P1;HPM_P2
2022/06/08 00:01:41;;;;;;;28.15;16.48;;;10.80;99.90;;;;;;5031827;28;20053;-82
2022/06/08 00:04:11;;;;;;;41.42;18.05;;;10.80;99.90;;;;;;5031006;28;20065;-82
2022/06/08 00:06:36;;;;;;;31.67;17.10;;;10.70;99.90;;;;;;5032439;28;20111;-82
2022/06/08 00:09:02;;;;;;;36.13;18.02;;;10.80;99.90;;;;;;5032894;28;20041;-82
2022/06/08 00:11:28;;;;;;;30.38;17.67;;;10.90;99.90;;;;;;5032463;28;20041;-82
2022/06/08 00:13:54;;;;;;;26.45;16.25;;;10.90;99.90;;;;;;5031569;28;20053;-82
2022/06/08 00:16:20;;;;;;;35.97;18.80;;;11.00;99.90;;;;;;5032787;28;20050;-81
2022/06/08 00:18:48;;;;;;;27.45;15.98;;;11.00;99.90;;;;;;5032697;28;20057;-82
2022/06/08 00:21:15;;;;;;;26.40;17.15;;;11.10;99.90;;;;;;5031538;28;20045;-82
2022/06/08 00:23:42;;;;;;;32.35;17.70;;;11.20;99.90;;;;;;5032537;28;20502;-82
2022/06/08 00:26:07;;;;;;;32.80;19.52;;;11.30;99.90;;;;;;5031103;28;20081;-82
2022/06/08 00:28:34;;;;;;;36.25;19.40;;;11.40;99.90;;;;;;5032744;28;20556;-82
2022/06/08 00:31:00;;;;;;;37.97;18.50;;;11.40;99.90;;;;;;5032567;28;20087;-82
2022/06/08 00:33:25;;;;;;;31.55;17.58;;;11.50;99.90;;;;;;5014670;28;20049;-84
2022/06/08 00:35:51;;;;;;;31.63;18.25;;;11.60;99.90;;;;;;5031060;28;20050;-82
2022/06/08 00:38:17;;;;;;;27.52;16.65;;;11.60;99.90;;;;;;5031435;28;20110;-83
2022/06/08 00:41:04;;;;;;;30.58;17.45;;;11.70;99.90;;;;;;5032202;28;20140;-82
2022/06/08 00:43:30;;;;;;;25.70;15.73;;;11.70;99.90;;;;;;5032519;28;20421;-82
2022/06/08 00:45:56;;;;;;;35.15;18.02;;;11.70;99.90;;;;;;5032515;28;20045;-81
2022/06/08 00:48:25;;;;;;;29.50;17.45;;;11.80;99.90;;;;;;5033700;28;20042;-82
2022/06/08 00:50:54;;;;;;;29.05;17.50;;;11.80;99.90;;;;;;5035937;28;20056;-82
2022/06/08 00:53:29;;;;;;;26.63;16.70;;;11.90;99.90;;;;;;5035848;28;20041;-82
2022/06/08 00:55:57;;;;;;;24.20;16.85;;;11.80;99.90;;;;;;5035137;28;20120;-82
2022/06/08 00:58:26;;;;;;;32.08;18.08;;;11.90;99.90;;;;;;5035999;28;20051;-82
2022/06/08 01:00:53;;;;;;;29.27;16.88;;;11.90;99.90;;;;;;5034627;28;20054;-82
2022/06/08 01:03:19;;;;;;;29.50;17.10;;;11.90;99.90;;;;;;5035963;28;20077;-82
2022/06/08 01:05:50;;;;;;;32.05;17.55;;;11.90;99.90;;;;;;5036232;28;20130;-82
2022/06/08 01:08:16;;;;;;;25.23;16.63;;;12.00;99.90;;;;;;5034405;28;20053;-87
2022/06/08 01:10:44;;;;;;;30.05;16.80;;;11.90;99.90;;;;;;5035923;28;20117;-82
2022/06/08 01:13:10;;;;;;;28.13;16.20;;;12.00;99.90;;;;;;5035901;28;20041;-81
2022/06/08 01:15:37;;;;;;;25.45;16.85;;;12.00;99.90;;;;;;5034302;28;20050;-82
2022/06/08 01:18:04;;;;;;;26.00;16.83;;;12.10;99.90;;;;;;5034499;28;20084;-81
2022/06/08 01:20:30;;;;;;;24.13;15.20;;;12.00;99.90;;;;;;5035611;28;20046;-82
2022/06/08 01:22:56;;;;;;;22.25;15.63;;;12.10;99.90;;;;;;5035121;28;20051;-81
2022/06/08 01:25:22;;;;;;;20.63;14.43;;;12.00;99.90;;;;;;5018165;28;20459;-82
2022/06/08 01:27:56;;;;;;;21.67;15.10;;;12.10;99.90;;;;;;5035561;28;20049;-82
2022/06/08 01:30:41;;;;;;;23.13;15.70;;;12.10;99.90;;;;;;5035457;28;20398;-82
2022/06/08 01:33:26;;;;;;;23.27;16.05;;;12.20;99.90;;;;;;5033869;28;20495;-82
2022/06/08 01:36:18;;;;;;;23.77;14.63;;;12.20;99.90;;;;;;5033672;28;20557;-82
2022/06/08 01:39:05;;;;;;;25.50;15.02;;;12.20;99.90;;;;;;5017975;28;20064;-82
2022/06/08 01:41:31;;;;;;;26.25;15.52;;;12.20;99.90;;;;;;5017404;28;20444;-83
2022/06/08 01:44:09;;;;;;;24.38;16.17;;;12.30;99.90;;;;;;5017282;28;20046;-81
2022/06/08 01:46:45;;;;;;;21.02;15.07;;;12.20;99.90;;;;;;5035196;28;20045;-82
2022/06/08 01:49:27;;;;;;;23.38;14.88;;;12.20;99.90;;;;;;5034030;28;20061;-93
2022/06/08 01:52:05;;;;;;;20.63;15.00;;;12.20;99.90;;;;;;5034740;28;20057;-82
2022/06/08 01:55:06;;;;;;;28.25;15.98;;;12.20;99.90;;;;;;5033567;28;20055;-82
2022/06/08 01:57:47;;;;;;;19.73;14.25;;;12.20;99.90;;;;;;5034786;28;20076;-82
2022/06/08 02:00:25;;;;;;;19.87;14.80;;;12.20;99.90;;;;;;5034091;28;20048;-82
2022/06/08 02:03:19;;;;;;;23.63;15.15;;;12.20;99.90;;;;;;5034388;28;20057;-84
2022/06/08 02:06:06;;;;;;;21.65;14.70;;;12.30;99.90;;;;;;5030254;28;20053;-81
2022/06/08 02:09:10;;;;;;;27.20;15.10;;;12.30;99.90;;;;;;5033318;28;20499;-82
2022/06/08 02:11:55;;;;;;;23.48;15.27;;;12.40;99.90;;;;;;4992896;28;20519;-82
2022/06/08 02:14:27;;;;;;;25.08;15.80;;;12.30;99.90;;;;;;4992816;28;20058;-82
2022/06/08 02:17:04;;;;;;;22.58;15.20;;;12.30;99.90;;;;;;4992634;28;20499;-82
2022/06/08 02:19:47;;;;;;;20.98;15.93;;;12.30;99.90;;;;;;4992782;28;20091;-83
2022/06/08 02:22:26;;;;;;;24.65;15.93;;;12.40;99.90;;;;;;4992913;28;20047;-82
2022/06/08 02:24:59;;;;;;;25.08;16.02;;;12.40;99.90;;;;;;4992759;28;20080;-81
2022/06/08 02:27:32;;;;;;;20.98;15.02;;;12.40;99.90;;;;;;4992605;28;20046;-81
2022/06/08 02:30:17;;;;;;;26.92;16.17;;;12.30;99.90;;;;;;4976474;28;20069;-83
2022/06/08 02:36:07;;;;;;;21.80;15.48;;;12.40;99.90;;;;;;4976079;28;20065;-82
2022/06/08 02:38:39;;;;;;;24.23;15.18;;;12.40;99.90;;;;;;4976284;28;20454;-81
2022/06/08 02:41:09;;;;;;;22.05;15.02;;;12.60;99.90;;;;;;4976544;28;20137;-82
2022/06/08 02:43:52;;;;;;;20.88;15.60;;;12.50;99.90;;;;;;4976375;28;20054;-82
2022/06/08 02:46:39;;;;;;;23.48;16.08;;;12.50;99.90;;;;;;5021937;28;20053;-82
2022/06/08 02:49:06;;;;;;;29.08;16.85;;;12.50;99.90;;;;;;5033733;28;20140;-82
2022/06/08 02:51:33;;;;;;;23.55;16.17;;;12.50;99.90;;;;;;5016660;28;20060;-82
2022/06/08 02:54:02;;;;;;;20.23;15.55;;;12.50;99.90;;;;;;5032460;28;20414;-82
2022/06/08 02:56:47;;;;;;;26.02;16.63;;;12.50;99.90;;;;;;5032726;28;20046;-82
2022/06/08 02:59:26;;;;;;;25.98;15.70;;;12.50;99.90;;;;;;5033669;28;20052;-81
2022/06/08 03:02:13;;;;;;;29.52;16.15;;;12.50;99.90;;;;;;5032519;28;20067;-82
2022/06/08 03:04:59;;;;;;;24.38;17.20;;;12.50;99.90;;;;;;5032557;28;20089;-81
2022/06/08 03:07:36;;;;;;;24.30;15.75;;;12.50;99.90;;;;;;5033438;28;20046;-81
2022/06/08 03:10:07;;;;;;;23.10;16.50;;;12.50;99.90;;;;;;5033235;28;20471;-82
2022/06/08 03:12:36;;;;;;;24.40;16.38;;;12.50;99.90;;;;;;5033354;28;20048;-81
2022/06/08 03:15:04;;;;;;;24.65;17.33;;;12.50;99.90;;;;;;5032391;28;20046;-81
2022/06/08 03:17:33;;;;;;;25.73;16.95;;;12.50;99.90;;;;;;5032085;28;20156;-81
2022/06/08 03:20:00;;;;;;;24.58;16.42;;;12.50;99.90;;;;;;5032270;28;20057;-81
2022/06/08 03:22:26;;;;;;;27.10;16.88;;;12.50;99.90;;;;;;5033208;28;20042;-81
2022/06/08 03:24:52;;;;;;;26.15;17.88;;;12.50;99.90;;;;;;5032978;28;20053;-81
2022/06/08 03:27:18;;;;;;;23.52;16.40;;;12.60;99.90;;;;;;5033293;28;20498;-81
2022/06/08 03:29:43;;;;;;;24.77;16.58;;;12.60;99.90;;;;;;5033087;28;20107;-82
2022/06/08 03:32:09;;;;;;;23.65;17.83;;;12.60;99.90;;;;;;5033202;28;20045;-82
2022/06/08 03:34:36;;;;;;;26.17;16.92;;;12.70;99.90;;;;;;5033053;28;20088;-81
2022/06/08 03:37:01;;;;;;;25.92;16.67;;;12.70;99.90;;;;;;5032955;28;20420;-82
2022/06/08 03:39:27;;;;;;;26.02;18.58;;;12.70;99.90;;;;;;5031648;28;20064;-81
2022/06/08 03:41:53;;;;;;;27.42;17.63;;;12.80;99.90;;;;;;5032983;28;20056;-82
2022/06/08 03:44:18;;;;;;;28.92;18.52;;;12.70;99.90;;;;;;5033037;28;20136;-81
2022/06/08 03:46:53;;;;;;;29.25;18.33;;;12.80;99.90;;;;;;5032813;28;20049;-82
2022/06/08 03:49:20;;;;;;;30.45;18.90;;;12.80;99.90;;;;;;5032826;28;20502;-82
2022/06/08 03:51:46;;;;;;;25.42;18.17;;;12.80;99.90;;;;;;5032779;28;20049;-81
2022/06/08 03:54:20;;;;;;;29.35;18.98;;;12.90;99.90;;;;;;5030777;28;20406;-86
2022/06/08 03:56:53;;;;;;;24.75;19.63;;;12.90;99.90;;;;;;5032957;28;20054;-81
2022/06/08 03:59:19;;;;;;;27.52;18.55;;;12.90;99.90;;;;;;5031811;28;20045;-81
2022/06/08 04:01:45;;;;;;;27.13;19.02;;;12.80;99.90;;;;;;5015095;28;20088;-81
2022/06/08 04:04:11;;;;;;;27.25;18.45;;;13.00;99.90;;;;;;5032643;28;20080;-83
2022/06/08 04:06:37;;;;;;;30.27;19.23;;;13.00;99.90;;;;;;5031699;28;20422;-83
2022/06/08 04:09:03;;;;;;;24.83;19.40;;;13.00;99.90;;;;;;5032747;28;20068;-82
2022/06/08 04:11:29;;;;;;;26.42;19.45;;;13.10;99.90;;;;;;5032792;28;20054;-82
2022/06/08 04:13:55;;;;;;;29.58;19.80;;;13.10;99.90;;;;;;5032543;28;20085;-82
2022/06/08 04:16:21;;;;;;;28.20;19.23;;;13.10;99.90;;;;;;5031545;28;20511;-82
2022/06/08 04:18:47;;;;;;;25.58;18.50;;;13.10;99.90;;;;;;5031609;28;20132;-82
2022/06/08 04:21:15;;;;;;;27.67;20.58;;;13.20;99.90;;;;;;5031406;28;20133;-83
2022/06/08 04:23:45;;;;;;;29.10;20.67;;;13.20;99.90;;;;;;5033227;28;20043;-82
2022/06/08 04:26:11;;;;;;;25.85;19.02;;;13.20;99.90;;;;;;5035820;28;20183;-82
2022/06/08 04:28:37;;;;;;;32.38;21.60;;;13.30;99.90;;;;;;5036626;28;20057;-82
2022/06/08 04:31:03;;;;;;;27.63;20.30;;;13.30;99.90;;;;;;5036372;28;20045;-82
2022/06/08 04:33:29;;;;;;;28.75;21.73;;;13.40;99.90;;;;;;5036375;28;20402;-81
2022/06/08 04:35:55;;;;;;;34.35;21.42;;;13.40;99.90;;;;;;5036413;28;20057;-81
2022/06/08 04:38:21;;;;;;;31.40;21.50;;;13.50;99.90;;;;;;5036018;28;20053;-82
2022/06/08 04:40:47;;;;;;;28.85;21.08;;;13.50;99.90;;;;;;5035421;28;20095;-87
2022/06/08 04:43:14;;;;;;;31.83;22.17;;;13.60;99.90;;;;;;5035103;28;20053;-82
2022/06/08 04:45:40;;;;;;;31.88;21.25;;;13.60;99.90;;;;;;5036251;28;20052;-81
2022/06/08 04:48:08;;;;;;;29.45;21.25;;;13.70;99.90;;;;;;5035963;28;20049;-81
2022/06/08 04:50:33;;;;;;;26.33;18.90;;;13.80;99.90;;;;;;5035052;28;20041;-82
2022/06/08 04:52:59;;;;;;;27.80;20.77;;;13.80;99.90;;;;;;5034719;28;20459;-85
2022/06/08 04:55:26;;;;;;;84.95;23.92;;;13.90;99.90;;;;;;5035014;28;20124;-82
2022/06/08 04:57:52;;;;;;;36.25;22.10;;;13.90;99.90;;;;;;5034349;28;20049;-82
2022/06/08 05:00:20;;;;;;;29.73;20.95;;;14.00;99.90;;;;;;5035895;28;20056;-81
2022/06/08 05:02:50;;;;;;;31.00;21.65;;;14.20;99.90;;;;;;5034702;28;20448;-82
2022/06/08 05:05:31;;;;;;;33.72;21.85;;;14.20;99.90;;;;;;5034865;28;20056;-84
2022/06/08 05:07:58;;;;;;;27.85;21.80;;;14.30;99.90;;;;;;5034802;28;20052;-82
2022/06/08 05:10:25;;;;;;;27.73;20.80;;;14.40;99.90;;;;;;5051294;28;20509;-84
2022/06/08 05:12:52;;;;;;;37.03;21.70;;;14.50;99.90;;;;;;5039739;28;20451;-82
2022/06/08 05:15:23;;;;;;;25.85;20.48;;;14.50;99.90;;;;;;5034379;28;20057;-81
2022/06/08 05:17:48;;;;;;;29.77;20.90;;;14.60;99.90;;;;;;5047031;28;20061;-82
2022/06/08 05:20:16;;;;;;;30.60;20.58;;;14.70;99.90;;;;;;5040795;28;20051;-82
2022/06/08 05:22:43;;;;;;;26.58;20.70;;;14.70;99.90;;;;;;5054254;28;20048;-82
2022/06/08 05:25:13;;;;;;;28.65;20.45;;;14.80;99.90;;;;;;5041375;28;20065;-81
2022/06/08 05:27:39;;;;;;;29.02;20.15;;;14.90;99.90;;;;;;5034554;28;20510;-80
2022/06/08 05:30:07;;;;;;;25.80;19.40;;;15.00;99.90;;;;;;5035364;28;20050;-81
2022/06/08 05:32:33;;;;;;;29.35;19.58;;;15.10;99.90;;;;;;5034143;28;20088;-81
2022/06/08 05:34:58;;;;;;;26.23;19.40;;;15.20;99.90;;;;;;5034617;28;20077;-81
2022/06/08 05:37:24;;;;;;;24.73;19.60;;;15.30;99.90;;;;;;5039392;28;20522;-81
2022/06/08 05:39:49;;;;;;;26.38;18.48;;;15.50;99.90;;;;;;5053726;28;20444;-82
2022/06/08 05:42:15;;;;;;;26.33;18.95;;;15.50;99.90;;;;;;5053761;28;20445;-85
2022/06/08 05:44:41;;;;;;;24.08;17.50;;;15.50;99.90;;;;;;5042787;28;20053;-83
2022/06/08 05:47:07;;;;;;;23.40;18.15;;;15.50;99.90;;;;;;5033707;28;20062;-87
2022/06/08 05:49:34;;;;;;;24.17;18.65;;;15.60;99.90;;;;;;5033979;28;20037;-86
2022/06/08 05:52:01;;;;;;;20.92;17.63;;;15.60;99.90;;;;;;5034976;28;20053;-81
2022/06/08 05:54:28;;;;;;;22.48;17.70;;;15.70;99.90;;;;;;5035670;28;20048;-81
2022/06/08 05:56:54;;;;;;;22.85;16.95;;;15.70;99.90;;;;;;5033873;28;20045;-82
2022/06/08 05:59:19;;;;;;;20.58;16.80;;;15.70;99.90;;;;;;5033842;28;20057;-81
2022/06/08 06:02:04;;;;;;;25.42;18.17;;;15.80;99.90;;;;;;5034910;28;20053;-82
2022/06/08 06:04:30;;;;;;;24.75;18.33;;;15.90;99.90;;;;;;5034236;28;20056;-81
2022/06/08 06:06:56;;;;;;;24.25;18.05;;;16.00;99.90;;;;;;5034621;28;20045;-81
2022/06/08 06:09:22;;;;;;;23.48;18.42;;;15.90;99.90;;;;;;5017326;28;20061;-82
2022/06/08 06:11:49;;;;;;;21.25;17.52;;;16.20;99.90;;;;;;5034567;28;20120;-82
2022/06/08 06:14:16;;;;;;;22.15;17.25;;;16.30;99.90;;;;;;5016881;28;20045;-82
2022/06/08 06:16:42;;;;;;;20.80;16.15;;;16.30;99.90;;;;;;5033590;28;20053;-82
2022/06/08 06:19:08;;;;;;;20.52;16.23;;;16.40;99.90;;;;;;5034159;28;20045;-81
2022/06/08 06:21:34;;;;;;;19.65;15.75;;;16.50;99.90;;;;;;5034776;28;20057;-82
2022/06/08 06:24:02;;;;;;;18.88;15.07;;;16.60;99.90;;;;;;5034891;28;20052;-82
2022/06/08 06:26:29;;;;;;;18.38;14.02;;;16.80;99.90;;;;;;5033769;28;20061;-81
2022/06/08 06:28:55;;;;;;;18.67;14.32;;;16.90;99.90;;;;;;5034796;28;20099;-82
2022/06/08 06:31:26;;;;;;;16.00;12.45;;;17.00;99.90;;;;;;5033695;28;20056;-82
2022/06/08 06:33:52;;;;;;;15.23;12.13;;;17.30;99.90;;;;;;5033586;28;20080;-82
2022/06/08 06:36:18;;;;;;;13.85;11.00;;;17.50;99.90;;;;;;5034400;28;20088;-82
2022/06/08 06:38:43;;;;;;;15.35;10.48;;;17.70;99.90;;;;;;5033168;28;20103;-82
2022/06/08 06:41:12;;;;;;;15.82;10.13;;;18.10;99.90;;;;;;5033034;28;20072;-82
2022/06/08 06:43:41;;;;;;;12.00;9.70;;;18.20;99.90;;;;;;5033847;28;20037;-82
2022/06/08 06:46:08;;;;;;;12.43;8.80;;;18.70;99.90;;;;;;5032197;28;20487;-83
2022/06/08 06:48:36;;;;;;;11.82;8.77;;;19.20;99.90;;;;;;5033749;28;20049;-82
2022/06/08 06:51:03;;;;;;;11.02;9.02;;;19.40;99.90;;;;;;5033737;28;20056;-81
2022/06/08 06:53:29;;;;;;;12.50;8.13;;;19.30;99.90;;;;;;5033677;28;20088;-82
2022/06/08 06:55:55;;;;;;;14.00;8.77;;;19.20;99.90;;;;;;5032529;28;20484;-83
2022/06/08 06:58:21;;;;;;;11.13;8.20;;;19.20;99.90;;;;;;5033735;28;20108;-82
2022/06/08 07:00:47;;;;;;;13.20;9.13;;;19.40;99.90;;;;;;5033964;28;20049;-82
2022/06/08 07:03:12;;;;;;;10.23;8.35;;;19.50;99.90;;;;;;5033261;28;20049;-82
2022/06/08 07:05:38;;;;;;;11.52;8.07;;;19.50;99.90;;;;;;5033707;28;20045;-82
2022/06/08 07:08:04;;;;;;;9.00;7.47;;;19.60;99.90;;;;;;5032473;28;20380;-82
2022/06/08 07:10:30;;;;;;;8.13;6.03;;;19.60;99.90;;;;;;5032601;28;20062;-82
2022/06/08 07:12:56;;;;;;;12.38;7.13;;;19.90;99.90;;;;;;5033193;28;20467;-81
2022/06/08 07:15:23;;;;;;;9.07;6.32;;;20.30;99.90;;;;;;5033280;28;20545;-81
2022/06/08 07:17:50;;;;;;;8.32;6.47;;;20.40;99.90;;;;;;5033349;28;20448;-82
2022/06/08 07:20:16;;;;;;;8.82;6.40;;;20.40;99.90;;;;;;5033353;28;20045;-81
2022/06/08 07:22:42;;;;;;;7.40;5.75;;;20.40;99.90;;;;;;5033307;28;20086;-81
2022/06/08 07:25:08;;;;;;;6.93;5.47;;;20.50;99.90;;;;;;5033260;28;20128;-82
2022/06/08 07:27:35;;;;;;;6.63;4.63;;;20.60;99.90;;;;;;5033066;28;20557;-82
2022/06/08 07:30:02;;;;;;;5.47;4.35;;;20.70;99.90;;;;;;5033135;28;20049;-81
2022/06/08 07:32:28;;;;;;;8.40;4.40;;;21.00;99.90;;;;;;5032637;28;20052;-82
2022/06/08 07:34:53;;;;;;;5.72;3.90;;;21.30;99.90;;;;;;5032123;28;20479;-82
2022/06/08 07:37:19;;;;;;;5.72;4.05;;;21.80;99.90;;;;;;5032744;28;20171;-87
2022/06/08 07:39:45;;;;;;;4.55;3.35;;;22.30;99.90;;;;;;5033054;28;20053;-82
2022/06/08 07:42:11;;;;;;;5.32;3.70;;;22.20;99.90;;;;;;5031990;28;20057;-83
2022/06/08 07:44:36;;;;;;;5.10;3.83;;;22.30;99.90;;;;;;5033172;28;20081;-82
2022/06/08 07:47:02;;;;;;;4.40;3.78;;;22.50;99.90;;;;;;5032884;28;20120;-85
2022/06/08 07:49:37;;;;;;;5.95;4.07;;;22.50;99.90;;;;;;5031708;28;20048;-80
2022/06/08 07:52:16;;;;;;;4.78;3.60;;;22.60;99.90;;;;;;5032719;28;20053;-80
2022/06/08 07:54:42;;;;;;;5.93;4.05;;;23.10;99.90;;;;;;5032952;28;20388;-79
2022/06/08 07:57:20;;;;;;;4.60;3.80;;;23.20;99.90;;;;;;5031326;28;20554;-80
2022/06/08 07:59:46;;;;;;;4.22;2.95;;;23.50;99.90;;;;;;5032340;28;20053;-83
2022/06/08 08:02:12;;;;;;;3.72;2.95;;;23.70;99.90;;;;;;5035225;28;20141;-82
2022/06/08 08:04:38;;;;;;;5.07;3.47;;;23.80;99.90;;;;;;5043918;28;20045;-83
2022/06/08 08:07:04;;;;;;;4.25;3.03;;;23.80;99.90;;;;;;5031703;28;20100;-83
2022/06/08 08:09:33;;;;;;;4.97;3.33;;;23.70;99.90;;;;;;5031765;28;20399;-84
2022/06/08 08:12:00;;;;;;;8.23;3.22;;;23.30;99.90;;;;;;5031635;28;20081;-83
2022/06/08 08:14:26;;;;;;;4.90;2.85;;;23.20;99.90;;;;;;5031534;28;20049;-83
2022/06/08 08:16:53;;;;;;;5.13;3.03;;;23.40;99.90;;;;;;5031619;28;20060;-83
2022/06/08 08:19:25;;;;;;;8.38;3.72;;;23.70;99.90;;;;;;5032831;28;20125;-83
2022/06/08 08:21:51;;;;;;;7.63;3.17;;;23.50;99.90;;;;;;5032562;28;20056;-83
2022/06/08 08:24:17;;;;;;;5.05;2.55;;;23.20;99.90;;;;;;5031998;28;20054;-84
2022/06/08 08:26:45;;;;;;;4.93;2.67;;;23.70;99.90;;;;;;5031785;28;20128;-83
2022/06/08 08:29:11;;;;;;;3.45;2.65;;;23.80;99.90;;;;;;5031404;28;20065;-83
2022/06/08 08:31:37;;;;;;;3.53;2.03;;;23.60;99.90;;;;;;5031988;28;20065;-82
2022/06/08 08:34:04;;;;;;;4.60;2.15;;;23.10;99.90;;;;;;5032672;28;20042;-83
2022/06/08 08:36:30;;;;;;;3.55;2.13;;;22.50;99.90;;;;;;5031444;28;20049;-82
2022/06/08 08:38:57;;;;;;;5.78;3.42;;;22.10;99.90;;;;;;5032552;28;20046;-83
2022/06/08 08:44:27;;;;;;;5.53;4.38;;;23.70;99.90;;;;;;5031837;28;20057;-83
2022/06/08 08:47:28;;;;;;;5.80;5.05;;;24.40;99.90;;;;;;5031105;28;20552;-84
2022/06/08 08:50:00;;;;;;;;;;;24.50;99.90;;;;;;4975405;28;20050;-83
2022/06/08 08:52:31;;;;;;;5.13;4.20;;;24.60;99.90;;;;;;4990870;28;19922;-83
2022/06/08 08:55:20;;;;;;;4.70;3.70;;;24.90;99.90;;;;;;4975208;28;20105;-83
2022/06/08 08:57:56;;;;;;;4.47;3.00;;;25.30;97.20;;;;;;4974848;28;20050;-83
2022/06/08 09:00:37;;;;;;;5.43;2.58;;;25.50;91.80;;;;;;4974888;28;20061;-83
2022/06/08 09:03:21;;;;;;;3.85;3.00;;;25.70;88.50;;;;;;4974518;28;20069;-83
2022/06/08 09:05:51;;;;;;;3.85;2.90;;;25.20;92.20;;;;;;4974765;28;20069;-81
2022/06/08 09:08:19;;;;;;;3.17;2.50;;;24.40;97.60;;;;;;4990532;28;20074;-84
2022/06/08 09:10:45;;;;;;;3.38;2.50;;;23.80;99.90;;;;;;4994096;28;20105;-82
2022/06/08 09:13:32;;;;;;;3.67;2.50;;;23.40;99.90;;;;;;4994005;28;20436;-84
2022/06/08 09:15:59;;;;;;;4.25;2.72;;;23.20;99.90;;;;;;4977883;28;20096;-83
2022/06/08 09:18:39;;;;;;;3.03;2.42;;;23.10;99.90;;;;;;4977875;28;20043;-84
2022/06/08 09:21:27;;;;;;;4.45;2.45;;;22.90;99.90;;;;;;4977957;28;20090;-83
2022/06/08 09:24:09;;;;;;;6.32;2.45;;;22.80;99.90;;;;;;4993959;28;20056;-83
2022/06/08 09:26:41;;;;;;;4.70;3.03;;;23.00;99.90;;;;;;5011831;28;20415;-83
2022/06/08 09:29:14;;;;;;;4.93;3.20;;;23.00;99.90;;;;;;5034312;28;20053;-83
2022/06/08 09:31:40;;;;;;;6.05;3.20;;;23.00;99.90;;;;;;5035908;28;20046;-83
2022/06/08 09:34:20;;;;;;;5.32;3.20;;;23.00;99.90;;;;;;5035288;28;20128;-84
2022/06/08 09:37:03;;;;;;;3.63;3.10;;;23.20;99.90;;;;;;5033883;28;20118;-83
2022/06/08 09:39:29;;;;;;;4.53;2.90;;;23.20;99.90;;;;;;5035255;28;20054;-83
2022/06/08 09:41:55;;;;;;;7.05;3.35;;;23.60;99.90;;;;;;5034380;28;20140;-84
2022/06/08 09:44:22;;;;;;;3.95;2.75;;;24.50;99.30;;;;;;5035243;28;20050;-83
2022/06/08 09:53:28;;;;;;;5.35;3.20;;;26.90;75.70;;;;;;5035281;28;20054;-84
2022/06/08 09:56:28;;;;;;;4.15;3.42;;;27.30;73.00;;;;;;5035275;28;20167;-83
2022/06/08 09:59:05;;;;;;;5.97;3.67;;;26.90;70.10;;;;;;5033857;28;20565;-83
2022/06/08 10:01:57;;;;;;;5.88;3.47;;;26.00;78.70;;;;;;5035096;28;20095;-84
2022/06/08 10:04:38;;;;;;;4.03;3.47;;;25.30;87.00;;;;;;5034126;28;20495;-81
2022/06/08 10:07:13;;;;;;;;;;;24.60;93.40;;;;;;5035262;28;20052;-82
2022/06/08 10:10:07;;;;;;;4.85;3.03;;;24.10;92.20;;;;;;5034333;28;19925;-81
2022/06/08 10:12:43;;;;;;;5.57;3.50;;;23.70;99.50;;;;;;5033732;28;20099;-81
2022/06/08 10:15:28;;;;;;;5.22;3.42;;;23.50;99.90;;;;;;5035036;28;20049;-81
2022/06/08 10:18:16;;;;;;;5.85;4.38;;;23.70;99.40;;;;;;5033326;28;20050;-81
2022/06/08 10:20:50;;;;;;;5.65;4.00;;;24.40;93.60;;;;;;5032740;28;20053;-91
2022/06/08 10:23:49;;;;;;;4.97;3.65;;;25.20;90.40;;;;;;5034604;28;20082;-81
2022/06/08 10:26:29;;;;;;;6.55;3.38;;;25.80;88.40;;;;;;5033287;28;20053;-81
2022/06/08 10:29:05;;;;;;;6.47;3.85;;;26.30;80.50;;;;;;5033336;28;20080;-83
2022/06/08 10:31:45;;;;;;;4.60;2.97;;;26.90;73.30;;;;;;5034951;28;20387;-83
2022/06/08 10:34:18;;;;;;;6.20;3.60;;;27.20;70.90;;;;;;5040188;28;20051;-81
2022/06/08 10:36:55;;;;;;;6.72;3.35;;;27.00;69.70;;;;;;5052766;28;20632;-82
2022/06/08 10:39:22;;;;;;;4.80;3.15;;;27.30;71.10;;;;;;5045560;28;20045;-81
2022/06/08 10:44:51;;;;;;;5.75;3.00;;;28.40;68.20;;;;;;5044837;28;20130;-83
2022/06/08 10:51:22;;;;;;;5.00;2.90;;;26.90;70.20;;;;;;5053128;28;20094;-82
2022/06/08 10:56:36;;;;;;;6.20;3.30;;;25.70;85.20;;;;;;5052744;28;20513;-82
2022/06/08 10:59:08;;;;;;;6.60;3.47;;;25.30;85.30;;;;;;5053253;28;20045;-83
2022/06/08 11:01:33;;;;;;;6.60;3.35;;;24.90;86.60;;;;;;5053857;28;20041;-83
2022/06/08 11:04:02;;;;;;;7.38;3.22;;;24.50;90.50;;;;;;5054068;28;20376;-82
2022/06/08 11:06:46;;;;;;;7.30;2.83;;;24.00;95.10;;;;;;5053407;28;20099;-83
2022/06/08 11:09:33;;;;;;;5.50;3.33;;;23.60;97.50;;;;;;5036395;28;20496;-83
2022/06/08 11:12:04;;;;;;;4.88;2.75;;;23.10;99.90;;;;;;5053428;28;20049;-82
2022/06/08 11:14:56;;;;;;;6.68;3.38;;;22.90;99.90;;;;;;5052069;28;20041;-82
2022/06/08 11:17:48;;;;;;;10.30;2.20;;;22.90;99.90;;;;;;5052017;28;20084;-82
2022/06/08 11:20:19;;;;;;;5.00;2.00;;;22.80;99.90;;;;;;5053142;28;20487;-82
2022/06/08 11:23:05;;;;;;;5.40;1.90;;;22.50;99.90;;;;;;5052560;28;20087;-82
2022/06/08 11:25:33;;;;;;;6.28;1.80;;;22.30;99.90;;;;;;5053038;28;20049;-82
2022/06/08 11:28:39;;;;;;;6.53;1.70;;;22.30;99.90;;;;;;5053251;28;20505;-82
2022/06/08 11:31:11;;;;;;;3.50;1.70;;;22.50;99.90;;;;;;5052258;28;20575;-82
2022/06/08 11:33:56;;;;;;;5.38;1.23;;;22.60;99.90;;;;;;5051254;28;20426;-83
2022/06/08 11:36:53;;;;;;;4.60;1.23;;;22.20;99.90;;;;;;5052203;28;20057;-82
2022/06/08 11:39:45;;;;;;;6.05;1.10;;;21.60;99.90;;;;;;5052270;28;20045;-84
2022/06/08 11:42:46;;;;;;;7.22;1.20;;;21.00;99.90;;;;;;5052148;28;20441;-81
2022/06/08 11:45:18;;;;;;;5.55;1.25;;;20.40;99.90;;;;;;5011261;28;20057;-82
2022/06/08 11:48:00;;;;;;;8.20;1.30;;;20.10;99.90;;;;;;5011185;28;20231;-83
2022/06/08 11:50:49;;;;;;;7.32;0.90;;;19.80;99.90;;;;;;4994808;28;20526;-82
2022/06/08 11:53:16;;;;;;;4.45;1.10;;;19.60;99.90;;;;;;4994919;28;20061;-81
2022/06/08 11:55:52;;;;;;;6.18;1.23;;;19.40;99.90;;;;;;5011989;28;20428;-82
2022/06/08 11:58:22;;;;;;;6.25;1.65;;;19.20;99.90;;;;;;4995205;28;20050;-91
2022/06/08 12:00:48;;;;;;;11.82;1.70;;;19.00;99.90;;;;;;5011507;28;20049;-84
2022/06/08 12:03:25;;;;;;;12.65;2.72;;;18.80;99.90;;;;;;4996126;28;20049;-84
2022/06/08 12:05:59;;;;;;;13.50;2.25;;;18.40;99.90;;;;;;4997916;28;20554;-86
2022/06/08 12:08:52;;;;;;;8.40;2.13;;;17.50;99.90;;;;;;4998051;28;20061;-86
2022/06/08 12:11:20;;;;;;;23.83;2.85;;;16.80;99.90;;;;;;4996954;28;20038;-85
2022/06/08 12:14:03;;;;;;;11.02;2.55;;;16.40;99.90;;;;;;4996408;28;20042;-87
2022/06/08 12:16:33;;;;;;;11.85;2.75;;;16.20;99.90;;;;;;4996390;28;20058;-84
2022/06/08 12:19:12;;;;;;;10.95;2.30;;;16.00;99.90;;;;;;4995550;28;20050;-83
2022/06/08 12:21:41;;;;;;;10.48;2.38;;;15.90;99.90;;;;;;5023433;28;20057;-83
2022/06/08 12:24:13;;;;;;;8.82;2.97;;;15.80;99.90;;;;;;5036118;28;20061;-82
2022/06/08 12:26:50;;;;;;;23.77;3.85;;;15.70;99.90;;;;;;5035389;28;20083;-82
2022/06/08 12:29:22;;;;;;;10.93;3.30;;;15.70;99.90;;;;;;5052951;28;20049;-82
2022/06/08 12:32:00;;;;;;;10.02;3.88;;;15.90;99.90;;;;;;5051494;28;20045;-82
2022/06/08 12:34:38;;;;;;;14.82;4.28;;;15.90;99.90;;;;;;5052119;28;20639;-82
2022/06/08 12:37:22;;;;;;;17.05;4.75;;;16.10;99.90;;;;;;5034037;28;20049;-82
2022/06/08 12:39:49;;;;;;;17.60;6.15;;;16.10;99.90;;;;;;5052003;28;20056;-82
2022/06/08 12:42:29;;;;;;;10.23;4.72;;;16.10;99.90;;;;;;5052573;28;20048;-81
2022/06/08 12:44:57;;;;;;;14.27;6.80;;;16.10;99.90;;;;;;5054549;28;20045;-82
2022/06/08 12:47:26;;;;;;;17.27;7.32;;;16.10;99.90;;;;;;5054928;28;20392;-82
2022/06/08 12:50:14;;;;;;;13.55;5.90;;;16.10;99.90;;;;;;5054991;28;20060;-82
2022/06/08 12:52:40;;;;;;;19.88;7.55;;;16.20;99.90;;;;;;5055064;28;20376;-82
2022/06/08 12:55:15;;;;;;;14.98;7.38;;;16.30;99.90;;;;;;5055718;28;20136;-81
2022/06/08 12:57:42;;;;;;;13.30;6.30;;;16.40;99.90;;;;;;5038229;28;20040;-82
2022/06/08 13:00:11;;;;;;;16.13;7.43;;;16.50;99.90;;;;;;5054441;28;20446;-82
2022/06/08 13:02:39;;;;;;;17.88;9.23;;;16.50;99.90;;;;;;5054814;28;20044;-81
2022/06/08 13:05:19;;;;;;;21.42;8.95;;;16.70;99.90;;;;;;5054749;28;20049;-82
2022/06/08 13:07:45;;;;;;;19.92;8.73;;;17.00;99.90;;;;;;5054830;28;20056;-81
2022/06/08 13:10:11;;;;;;;22.08;10.20;;;17.30;99.90;;;;;;5054605;28;20405;-82
2022/06/08 13:13:03;;;;;;;11.73;7.22;;;17.60;99.90;;;;;;5054064;28;20052;-83
2022/06/08 13:15:37;;;;;;;13.93;6.60;;;18.10;99.90;;;;;;5051723;28;20099;-83
2022/06/08 13:18:03;;;;;;;13.00;6.43;;;18.40;99.90;;;;;;5054107;28;20160;-82
2022/06/08 13:20:32;;;;;;;13.35;5.68;;;18.70;99.90;;;;;;5054363;28;20045;-82
2022/06/08 13:22:58;;;;;;;10.07;6.45;;;18.80;99.90;;;;;;5054238;28;20084;-82